WEATHER DATA

YESTERDAY
Time Temp. Dewp. Hum. Wind dir Wind speed Wind gust Bar. 1h Prec. 24h Prec.
00:02 2.5 0.4 86 225 0.8 1.7 1025.3 0.0000 0.0000
00:12 2.4 0.3 86 225 1.1 2.8 1025.2 0.0000 0.0000
00:22 2.3 0.4 87 222 1.1 2.5 1025.3 0.0000 0.0000
00:32 2.3 0.4 87 218 1.1 2.2 1025.2 0.0000 0.0000
00:43 2.2 0.3 87 221 0.8 2.2 1025.3 0.0000 0.0000
00:53 2.2 0.3 87 223 0.8 2.2 1025.2 0.0000 0.0000
01:03 2.2 0.3 87 228 0.8 2.2 1025.3 0.0000 0.0000
01:12 2.1 0.2 87 226 1.1 3.1 1025.3 0.0000 0.0000
01:23 2.1 0.2 87 225 0.8 1.9 1025.2 0.0000 0.0000
01:33 2 0.1 87 225 0.6 1.4 1025.1 0.0000 0.0000
01:43 1.9 0 87 90 0.3 1.1 1025.1 0.0000 0.0000
01:54 1.8 -0.3 86 211 0.6 1.1 1025.1 0.0000 0.0000
02:05 1.7 -0.3 86 211 0.3 0.8 1025 0.0000 0.0000
02:15 1.6 -0.4 86 227 0.6 1.4 1025.1 0.0000 0.0000
02:25 1.5 -0.5 86 214 0.6 1.4 1024.9 0.0000 0.0000
02:35 1.4 -0.6 86 212 0.3 1.4 1025 0.0000 0.0000
02:45 1.4 -0.6 86 211 0.6 1.1 1024.9 0.0000 0.0000
02:55 1.3 -0.5 87 200 0.3 0.8 1024.8 0.0000 0.0000
03:05 1.2 -0.6 87 225 0.6 1.4 1024.7 0.0000 0.0000
03:16 1.2 -0.6 87 210 0.3 1.7 1024.8 0.0000 0.0000
03:26 1.1 -0.7 87 212 0.3 0.6 1024.7 0.0000 0.0000
03:35 1 -0.8 87 212 0.3 0.6 1024.7 0.0000 0.0000
03:45 0.9 -0.9 87 225 0.6 1.1 1024.4 0.0000 0.0000
03:56 0.8 -1 87 210 0.6 1.1 1024.4 0.0000 0.0000
04:16 0.6 -1.2 87 214 0.6 1.1 1024.2 0.0000 0.0000
04:26 0.5 -1.2 87 222 0.6 0.8 1024.4 0.0000 0.0000
04:36 0.4 -1.3 87 210 0.3 0.6 1024.4 0.0000 0.0000
04:46 0.3 -1.4 87 202 0.3 0.6 1024.4 0.0000 0.0000
04:56 0.2 -1.5 87 202 0.3 0.8 1024.4 0.0000 0.0000
05:07 0.1 -1.6 87 193 0.3 0.8 1024.8 0.0000 0.0000
05:17 -0.1 -1.8 87 207 0.3 0.8 1024.5 0.0000 0.0000
05:27 -0.2 -1.9 87 203 0.3 0.8 1024.7 0.0000 0.0000
05:36 -0.2 -1.9 87 210 0.3 1.1 1024.7 0.0000 0.0000
05:48 -0.2 -1.9 87 217 0.6 1.1 1024.7 0.0000 0.0000
05:58 -0.2 -1.9 87 212 0.6 1.1 1024.8 0.0000 0.0000
06:08 -0.2 -1.9 87 217 0.6 1.1 1024.7 0.0000 0.0000
06:18 -0.2 -1.7 88 220 0.6 1.1 1024.7 0.0000 0.0000
06:29 -0.2 -1.7 88 213 0.6 1.1 1024.5 0.0000 0.0000
06:39 -0.2 -1.7 88 216 0.6 1.4 1024.7 0.0000 0.0000
06:48 -0.2 -1.7 88 217 0.6 1.1 1024.4 0.0000 0.0000
06:59 -0.3 -1.8 88 225 0.6 1.1 1024.7 0.0000 0.0000
07:09 -0.4 -1.9 88 211 0.8 1.7 1024.5 0.0000 0.0000
07:19 -0.4 -2.1 87 215 0.6 1.1 1024.7 0.0000 0.0000
07:29 -0.5 -2 88 222 0.6 1.4 1024.7 0.0000 0.0000
07:40 -0.5 -2 88 223 0.6 1.1 1024.8 0.0000 0.0000
07:49 -0.5 -2 88 225 0.3 0.8 1024.9 0.0000 0.0000
07:59 -0.5 -2 88 188 0.3 0.6 1025 0.0000 0.0000
08:09 -0.6 -2.1 88 200 0.3 0.6 1025.1 0.0000 0.0000
08:20 -0.6 -2.1 88 196 0.3 0.6 1025.1 0.0000 0.0000
08:30 -0.5 -1.9 89 218 0.3 0.8 1025.1 0.0000 0.0000
08:39 -0.3 -1.7 89 219 0.6 1.1 1025.1 0.0000 0.0000
08:50 -0.2 -1.5 90 222 0.6 1.7 1024.9 0.0000 0.0000
09:00 0 -1.3 90 212 0.6 1.1 1024.9 0.0000 0.0000
09:10 0.1 -1.2 90 225 0.6 1.4 1024.9 0.0000 0.0000
09:20 0.3 -1 90 210 0.3 0.8 1024.9 0.0000 0.0000
09:31 0.6 -0.6 91 236 0.3 0.8 1024.8 0.0000 0.0000
09:41 0.8 -0.4 91 200 0.6 1.1 1024.8 0.0000 0.0000
09:51 1.1 -0.2 91 210 0.3 0.8 1024.5 0.0000 0.0000
10:01 1.4 0 90 213 0.3 0.8 1024.4 0.0000 0.0000
10:12 1.7 0.2 90 34 0.3 0.8 1024.5 0.0000 0.0000
10:21 2 0.5 90 90 0.3 0.8 1024.7 0.0000 0.0000
10:31 2.5 1 90 33 0.8 1.7 1024.3 0.0000 0.0000
10:42 3 1.4 89 45 0.6 1.7 1024.2 0.0000 0.0000
10:52 3.4 1.8 89 29 0.6 1.4 1024.1 0.0000 0.0000
11:02 3.8 1.8 87 40 0.6 1.4 1024 0.0000 0.0000
11:12 4.2 2.1 86 90 0.3 1.4 1024.1 0.0000 0.0000
11:23 4.5 2.2 85 35 0.6 1.4 1024.1 0.0000 0.0000
11:33 4.8 2.5 85 90 0.3 0.8 1024.2 0.0000 0.0000
11:43 5.2 2.7 84 40 0.6 1.4 1024.2 0.0000 0.0000
11:53 5.6 2.9 83 33 0.3 1.1 1024.2 0.0000 0.0000
12:03 5.8 3 82 0.3 0.8 1024.1 0.0000 0.0000
12:13 6.2 3.2 81 225 0.3 0.8 1023.9 0.0000 0.0000
12:23 6.6 3.4 80 146 0.3 0.6 1023.6 0.0000 0.0000
12:33 7 3.6 79 56 0.3 0.6 1023.5 0.0000 0.0000
12:44 7.5 3.9 78 50 0.3 0.8 1023.3 0.0000 0.0000
12:54 8 4.4 78 59 0.3 1.1 1023 0.0000 0.0000
13:04 8.4 4.4 76 90 0.3 1.1 1023 0.0000 0.0000
13:14 8.8 4.6 75 54 0.3 0.8 1022.9 0.0000 0.0000
13:25 9.2 4.6 73 49 0.3 1.1 1022.6 0.0000 0.0000
13:35 9.5 4.7 72 90 0.3 1.1 1022.3 0.0000 0.0000
13:45 9.9 4.9 71 49 0.3 0.8 1022.1 0.0000 0.0000
13:55 10.3 5.5 72 53 0.3 1.1 1022.1 0.0000 0.0000
14:05 10.5 5.5 71 68 0.6 1.1 1021.9 0.0000 0.0000
14:15 10.8 5.6 70 73 0.6 1.1 1021.6 0.0000 0.0000
14:25 10.9 5.2 68 52 0.6 1.1 1021.4 0.0000 0.0000
14:36 11.1 5.4 68 90 0.3 1.1 1021.4 0.0000 0.0000
14:47 11.2 5.3 67 54 0.8 1.9 1021.2 0.0000 0.0000
14:57 11.4 5.7 68 51 0.6 1.4 1021.2 0.0000 0.0000
15:06 11.5 5.6 67 59 0.6 1.4 1021 0.0000 0.0000
15:17 11.6 5.7 67 73 0.6 1.1 1020.9 0.0000 0.0000
15:32 11.7 5.8 67 90 0.3 0.8 1020.9 0.0000 0.0000
15:42 11.7 5.6 66 90 0.3 1.1 1020.8 0.0000 0.0000
15:52 11.7 5.6 66 90 0.3 0.8 1020.8 0.0000 0.0000
16:02 11.6 5.7 67 90 0.3 0.6 1020.8 0.0000 0.0000
16:12 11.4 5.7 68 90 0.3 0.6 1020.8 0.0000 0.0000
16:22 11.3 5.8 69 90 0.3 0.6 1020.7 0.0000 0.0000
16:33 11.1 5.6 69 90 0.3 0.6 1020.6 0.0000 0.0000
16:43 10.9 5.4 69 90 0.3 0.6 1020.6 0.0000 0.0000
16:53 10.6 5.4 70 90 0.3 0.6 1020.4 0.0000 0.0000
17:03 10.3 5.1 70 90 0.3 0.6 1020.3 0.0000 0.0000
17:14 10 4.8 70 90 0.3 0.6 1020.3 0.0000 0.0000
17:24 9.6 4.6 71 90 0.3 0.6 1020.3 0.0000 0.0000
17:33 9.2 4.4 72 90 0.3 0.6 1020.3 0.0000 0.0000
17:44 8.7 4.1 73 90 0.3 0.6 1020.1 0.0000 0.0000
17:54 8.3 3.9 74 90 0.3 0.6 1020.3 0.0000 0.0000
18:04 7.9 3.6 74 90 0.3 0.6 1020 0.0000 0.0000
18:14 7.5 3.4 75 90 0.3 0.6 1020.1 0.0000 0.0000
18:25 7.1 3 75 191 0.3 0.6 1020.1 0.0000 0.0000
18:34 6.8 2.9 76 90 0.3 0.6 1020.1 0.0000 0.0000
18:44 6.5 2.8 77 214 0.3 0.8 1020.3 0.0000 0.0000
18:54 6.2 2.8 79 201 0.3 0.8 1020.2 0.0000 0.0000
19:05 6 2.8 80 237 0.6 1.1 1020.1 0.0000 0.0000
19:15 5.7 2.7 81 219 0.3 1.1 1020.1 0.0000 0.0000
19:24 5.6 2.6 81 192 0.3 0.8 1019.7 0.0000 0.0000
19:35 5.4 2.6 82 217 0.3 1.1 1019.9 0.0000 0.0000
19:45 5.3 2.5 82 204 0.3 0.8 1019.9 0.0000 0.0000
19:55 5.1 2.3 82 225 0.3 0.8 1019.8 0.0000 0.0000
20:05 4.9 2.1 82 217 0.3 1.1 1019.8 0.0000 0.0000
20:16 4.8 2 82 213 0.3 0.6 1019.7 0.0000 0.0000
20:25 4.6 1.8 82 225 0.3 0.6 1019.7 0.0000 0.0000
20:35 4.4 1.6 82 186 0.3 1.1 1019.7 0.0000 0.0000
20:46 4.2 1.4 82 212 0.3 0.6 1019.8 0.0000 0.0000
20:56 4 1.2 82 0 0.6 1019.8 0.0000 0.0000
21:06 3.8 1.2 83 210 0.3 1.1 1019.8 0.0000 0.0000
21:16 3.7 1.1 83 201 0.3 0.6 1019.8 0.0000 0.0000
21:26 3.6 1 83 51 0.3 0.8 1019.8 0.0000 0.0000
21:37 3.4 1 84 201 0.3 1.1 1020 0.0000 0.0000
21:47 3.3 0.9 84 0 0.6 1019.9 0.0000 0.0000
21:57 3.2 0.8 84 201 0.3 1.1 1019.9 0.0000 0.0000
22:08 3.1 0.7 84 218 0.3 0.8 1019.9 0.0000 0.0000
22:18 3 0.7 85 233 0.6 1.9 1019.9 0.0000 0.0000
22:28 3 0.9 86 227 0.6 1.1 1019.9 0.0000 0.0000
22:32 2.9 0.8 86 230 0.6 1.1 1019.8 0.0000 0.0000
22:42 2.9 0.6 85 227 0.6 1.4 1019.8 0.0000 0.0000
22:53 2.8 0.7 86 227 0.6 1.4 1019.7 0.0000 0.0000
23:03 2.8 0.7 86 222 0.6 1.7 1019.7 0.0000 0.0000
23:12 2.7 0.6 86 230 0.6 1.7 1019.6 0.0000 0.0000
23:23 2.6 0.5 86 232 0.6 1.4 1019.6 0.0000 0.0000
23:33 2.5 0.4 86 146 0.3 0.8 1019.6 0.0000 0.0000
23:43 2.4 0.1 85 161 0.3 0.6 1019.5 0.0000 0.0000
23:54 2.3 0.2 86 217 0.3 1.4 1019.5 0.0000 0.0000

DAY STATISTIC

2019-02-18
TEMPERATURE
AVERAGE
4.1
HIGH
11.7
15:32
LOW
-0.6
08:09
PRESSURE
AVERAGE
1022.7
HIGH
1025.3
00:02
LOW
1019.5
23:43
DEWPOINT
AVERAGE
1.3
HIGH
5.8
15:32
LOW
-2.1
07:19
HUMIDITY
AVERAGE
82
HIGH
91
09:31
LOW
66
15:42
WIND SPEED
AVERAGE
0.4
HIGH
1.1
00:12
WIND GUST
AVERAGE
1.1
HIGH
3.1
01:12
WIND DIRECTION
PREVAILING
SW
49.6%
N
0.0
NE
14.2
E
19.9
SE
1.4
S
12.8
SW
49.6
W
0.0
NW
0.0
PRECIPITATION
RAIN HOUR
0.0
RAIN DAY
0.0
TEMPERATURE (°C)
LOW
-0.6
HIGH
11.7
AVERAGE
4.1
PRESSURE (hpa)
LOW
1019.5
HIGH
1025.3
AVERAGE
1022.7
DEVICE